Terminal Aerodrome Forecast
Issued by NWS

Home | Current Version | Previous Version | Graphics & Text | Print | Product List | Glossary On
Versions: 1 2 3 4 5 6 7 8 9 10 11 12 13 14 15 16
000
FTUS43 KIWX 140524
TAFSBN
TAF
KSBN 140524Z 1406/1506 06006KT P6SM OVC080
     FM141400 10006KT P6SM OVC030
     FM141600 06004KT P6SM OVC035
     FM142100 33004KT P6SM SCT035 BKN150
     FM150400 35004KT P6SM SCT110=

USA.gov is the U.S. government's official web portal to all federal, state and local government web resources and services.